createdAt,value
2022-12-20T00:01:17.431Z,100852.00
2022-12-20T00:06:24.183Z,100838.63
2022-12-20T00:11:30.064Z,100822.06
2022-12-20T00:16:33.327Z,100855.28
2022-12-20T00:21:38.307Z,100835.00
2022-12-20T00:26:43.152Z,100844.66
2022-12-20T00:31:46.510Z,100852.38
2022-12-20T00:36:49.833Z,100825.97
2022-12-20T00:41:54.521Z,100826.88
2022-12-20T00:46:57.919Z,100811.88
2022-12-20T00:52:01.299Z,100803.16
2022-12-20T00:57:05.913Z,100800.41
2022-12-20T01:02:09.167Z,100815.03
2022-12-20T01:07:12.597Z,100813.25
2022-12-20T01:12:17.250Z,100808.09
2022-12-20T01:17:20.972Z,100785.47
2022-12-20T01:22:24.236Z,100763.72
2022-12-20T01:27:30.028Z,100768.00
2022-12-20T01:32:33.387Z,100783.69
2022-12-20T01:37:36.803Z,100758.31
2022-12-20T01:42:41.421Z,100761.63
2022-12-20T01:47:44.701Z,100740.84
2022-12-20T01:52:49.220Z,100753.72
2022-12-20T01:58:00.063Z,100743.75
2022-12-20T02:03:08.260Z,100715.22
2022-12-20T02:08:14.804Z,100743.97
2022-12-20T02:13:33.612Z,100754.88
2022-12-20T02:18:44.758Z,100743.38
2022-12-20T02:24:32.168Z,100746.59
2022-12-20T02:29:39.757Z,100754.84
2022-12-20T02:34:44.775Z,100725.56
2022-12-20T02:39:48.704Z,100749.84
2022-12-20T02:45:16.827Z,100745.88
2022-12-20T02:50:26.652Z,100740.25
2022-12-20T02:55:40.114Z,100735.84
2022-12-20T03:00:48.421Z,100729.53
2022-12-20T03:05:55.097Z,100728.34
2022-12-20T03:10:58.508Z,100710.84
2022-12-20T03:16:01.964Z,100705.66
2022-12-20T03:21:07.036Z,100687.28
2022-12-20T03:26:10.540Z,100679.69
2022-12-20T03:31:13.897Z,100670.88
2022-12-20T03:36:23.664Z,100658.03
2022-12-20T03:41:27.399Z,100682.81
2022-12-20T03:46:30.663Z,100650.06
2022-12-20T03:51:35.458Z,100677.25
2022-12-20T03:56:38.963Z,100669.31
2022-12-20T04:01:42.345Z,100663.06
2022-12-20T04:06:47.074Z,100663.66
2022-12-20T04:11:50.377Z,100647.78
2022-12-20T04:16:53.665Z,100636.31
2022-12-20T04:22:04.719Z,100623.91
2022-12-20T04:27:08.682Z,100618.38
2022-12-20T04:32:12.141Z,100610.22
2022-12-20T04:37:16.758Z,100608.19
2022-12-20T04:42:20.231Z,100604.41
2022-12-20T04:47:23.710Z,100600.72
2022-12-20T04:52:48.224Z,100603.06
2022-12-20T04:57:52.949Z,100602.56
2022-12-20T05:02:56.680Z,100596.31
2022-12-20T05:08:01.606Z,100580.50
2022-12-20T05:13:09.219Z,100573.13
2022-12-20T05:18:12.799Z,100566.66
2022-12-20T05:23:46.333Z,100568.06
2022-12-20T05:28:49.775Z,100568.75
2022-12-20T05:33:53.275Z,100567.75
2022-12-20T05:39:03.578Z,100559.09
2022-12-20T05:44:09.023Z,100552.06
2022-12-20T05:49:12.276Z,100545.84
2022-12-20T05:54:17.972Z,100544.16
2022-12-20T05:59:21.347Z,100551.97
2022-12-20T06:04:24.598Z,100538.03
2022-12-20T06:09:30.371Z,100538.63
2022-12-20T06:14:34.259Z,100534.94
2022-12-20T06:19:37.855Z,100536.41
2022-12-20T06:24:48.013Z,100533.69
2022-12-20T06:29:54.720Z,100523.41
2022-12-20T06:34:58.353Z,100518.97
2022-12-20T06:40:03.748Z,100524.97
2022-12-20T06:45:08.102Z,100520.88
2022-12-20T06:50:11.453Z,100522.91
2022-12-20T06:55:16.530Z,100517.91
2022-12-20T07:00:20.977Z,100498.28
2022-12-20T07:05:24.407Z,100489.81
2022-12-20T07:10:29.011Z,100470.88
2022-12-20T07:15:32.750Z,100468.28
2022-12-20T07:20:36.182Z,100470.25
2022-12-20T07:25:41.384Z,100464.00
2022-12-20T07:30:44.593Z,100449.88
2022-12-20T07:35:54.009Z,100441.03
2022-12-20T07:40:59.255Z,100428.41
2022-12-20T07:46:03.733Z,100406.81
2022-12-20T07:51:11.176Z,100384.38
2022-12-20T07:56:17.168Z,100369.28
2022-12-20T08:01:22.161Z,100353.19
2022-12-20T08:06:25.484Z,100330.41
2022-12-20T08:11:31.810Z,100322.00
2022-12-20T08:16:35.201Z,100288.63
2022-12-20T08:21:38.596Z,100285.38
2022-12-20T08:26:43.358Z,100275.91
2022-12-20T08:31:50.328Z,100269.22
2022-12-20T08:36:54.183Z,100258.41
2022-12-20T08:41:58.867Z,100247.28
2022-12-20T08:47:02.132Z,100226.41
2022-12-20T08:52:05.448Z,100218.00
2022-12-20T08:57:10.699Z,100204.19
2022-12-20T09:02:14.591Z,100176.28
2022-12-20T09:07:18.171Z,100169.47
2022-12-20T09:12:23.697Z,100164.28
2022-12-20T09:17:27.115Z,100148.53
2022-12-20T09:22:30.956Z,100138.03
2022-12-20T09:27:35.591Z,100125.78
2022-12-20T09:32:38.850Z,100111.47
2022-12-20T09:37:42.137Z,100097.16
2022-12-20T09:42:47.902Z,100086.19
2022-12-20T09:47:52.396Z,100077.88
2022-12-20T09:53:18.341Z,100069.81
2022-12-20T09:58:37.618Z,100060.16
2022-12-20T10:03:41.069Z,100039.13
2022-12-20T10:08:47.976Z,100029.63
2022-12-20T10:14:05.865Z,100018.38
2022-12-20T10:19:22.994Z,100002.66
2022-12-20T10:24:30.584Z,99988.56
2022-12-20T10:29:35.293Z,99991.94
2022-12-20T10:34:48.631Z,99995.16
2022-12-20T10:39:54.804Z,99994.19
2022-12-20T10:44:59.984Z,99986.78
2022-12-20T10:50:18.371Z,99968.03
2022-12-20T10:55:36.843Z,99947.84
2022-12-20T11:00:42.166Z,99939.78
2022-12-20T11:05:56.579Z,99928.09
2022-12-20T11:11:14.460Z,99911.66
2022-12-20T11:16:41.821Z,99931.28
2022-12-20T11:21:54.089Z,99930.00
2022-12-20T11:27:15.734Z,99944.91
2022-12-20T11:32:31.970Z,99937.13
2022-12-20T11:37:43.239Z,99931.34
2022-12-20T11:42:59.235Z,99920.75
2022-12-20T11:48:38.484Z,99918.97
2022-12-20T11:53:47.026Z,99929.44
2022-12-20T11:58:54.665Z,99906.13
2022-12-20T12:04:11.583Z,99933.66
2022-12-20T12:09:23.291Z,99920.97
2022-12-20T12:14:36.628Z,99913.59
2022-12-20T12:19:49.501Z,99921.13
2022-12-20T12:24:55.427Z,99923.91
2022-12-20T12:30:00.227Z,99926.88
2022-12-20T12:35:22.854Z,99924.56
2022-12-20T12:40:53.165Z,99926.47
2022-12-20T12:45:59.780Z,99923.16
2022-12-20T12:51:10.845Z,99905.06
2022-12-20T12:56:45.455Z,99940.53
2022-12-20T13:01:51.829Z,99933.53
2022-12-20T13:07:25.181Z,99936.00
2022-12-20T13:12:57.226Z,99936.00
2022-12-20T13:18:01.453Z,99927.41
2022-12-20T13:23:17.579Z,99925.66
2022-12-20T13:28:45.901Z,99925.66
2022-12-20T13:33:51.832Z,99887.31
2022-12-20T13:38:59.895Z,99915.38
2022-12-20T13:44:22.877Z,99900.50
2022-12-20T13:49:29.731Z,99912.16
2022-12-20T13:54:34.769Z,99904.38
2022-12-20T13:59:38.107Z,99906.97
2022-12-20T14:04:44.558Z,99907.72
2022-12-20T14:09:57.762Z,99903.56
2022-12-20T14:15:01.390Z,99907.03
2022-12-20T14:20:08.013Z,99898.28
2022-12-20T14:25:15.941Z,99896.34
2022-12-20T14:30:34.191Z,99866.28
2022-12-20T14:35:37.524Z,99895.66
2022-12-20T14:40:46.674Z,99902.34
2022-12-20T14:46:09.757Z,99893.22
2022-12-20T14:51:14.985Z,99896.31
2022-12-20T14:56:27.914Z,99892.41
2022-12-20T15:01:40.084Z,99894.09
2022-12-20T15:06:48.275Z,99865.69
2022-12-20T15:11:53.630Z,99888.34
2022-12-20T15:16:58.477Z,99895.06
2022-12-20T15:22:02.044Z,99900.97
2022-12-20T15:27:13.682Z,99898.03
2022-12-20T15:32:25.666Z,99879.22
2022-12-20T15:37:29.075Z,99886.97
2022-12-20T15:42:33.856Z,99883.16
2022-12-20T15:47:37.231Z,99897.56
2022-12-20T15:52:40.634Z,99908.13
2022-12-20T15:57:45.355Z,99899.72
2022-12-20T16:02:51.781Z,99900.72
2022-12-20T16:07:55.589Z,99913.19
2022-12-20T16:13:00.226Z,99899.94
2022-12-20T16:18:03.527Z,99903.22
2022-12-20T16:23:07.730Z,99896.03
2022-12-20T16:28:12.328Z,99903.75
2022-12-20T16:33:21.263Z,99894.91
2022-12-20T16:38:24.753Z,99893.88
2022-12-20T16:43:32.781Z,99898.75
2022-12-20T16:48:40.379Z,99906.81
2022-12-20T16:54:17.222Z,99904.47
2022-12-20T16:59:19.154Z,99897.13
2022-12-20T17:04:26.347Z,99894.81
2022-12-20T17:14:51.566Z,99897.16
2022-12-20T17:19:54.921Z,99904.31
2022-12-20T17:24:58.366Z,99909.50
2022-12-20T17:30:03.168Z,99909.50
2022-12-20T17:35:08.379Z,99910.81
2022-12-20T17:40:14.709Z,99919.19
2022-12-20T17:45:26.761Z,99900.47
2022-12-20T17:50:30.436Z,99911.44
2022-12-20T17:55:33.831Z,99894.66
2022-12-20T18:00:39.484Z,99897.22
2022-12-20T18:05:43.085Z,99891.06
2022-12-20T18:10:47.121Z,99887.44
2022-12-20T18:15:54.098Z,99884.13
2022-12-20T18:21:03.355Z,99885.16
2022-12-20T18:26:15.278Z,99895.94
2022-12-20T18:31:21.902Z,99889.88
2022-12-20T18:36:27.624Z,99888.09
2022-12-20T18:41:34.699Z,99880.50
2022-12-20T18:46:39.523Z,99890.09
2022-12-20T18:51:43.962Z,99894.09
2022-12-20T18:56:47.269Z,99891.03
2022-12-20T19:01:52.902Z,99878.44
2022-12-20T19:06:56.362Z,99879.47
2022-12-20T19:11:59.709Z,99877.72
2022-12-20T19:17:04.620Z,99879.59
2022-12-20T19:22:07.896Z,99884.16
2022-12-20T19:27:11.369Z,99891.84
2022-12-20T19:32:16.823Z,99887.41
2022-12-20T19:37:20.293Z,99884.84
2022-12-20T19:42:25.127Z,99883.09
2022-12-20T19:47:33.245Z,99879.78
2022-12-20T19:52:36.921Z,99883.47
2022-12-20T19:57:40.306Z,99880.38
2022-12-20T20:02:45.239Z,99880.63
2022-12-20T20:07:48.576Z,99878.13
2022-12-20T20:12:51.914Z,99887.72
2022-12-20T20:17:58.590Z,99896.38
2022-12-20T20:23:02.099Z,99897.38
2022-12-20T20:28:06.212Z,99888.06
2022-12-20T20:33:12.323Z,99891.66
2022-12-20T20:38:15.614Z,99896.03
2022-12-20T20:43:19.930Z,99899.63
2022-12-20T20:48:24.735Z,99897.06
2022-12-20T20:53:33.568Z,99899.81
2022-12-20T20:58:37.880Z,99895.66
2022-12-20T21:03:43.151Z,99892.25
2022-12-20T21:08:46.473Z,99899.16
2022-12-20T21:13:49.774Z,99894.81
2022-12-20T21:18:55.590Z,99902.50
2022-12-20T21:23:58.918Z,99899.00
2022-12-20T21:29:02.399Z,99879.81
2022-12-20T21:34:07.258Z,99895.66
2022-12-20T21:39:13.839Z,99893.06
2022-12-20T21:44:17.433Z,99898.34
2022-12-20T21:49:22.363Z,99896.88
2022-12-20T21:54:25.793Z,99889.31
2022-12-20T21:59:29.122Z,99891.25
2022-12-20T22:04:35.888Z,99887.97
2022-12-20T22:09:39.585Z,99882.03
2022-12-20T22:14:42.802Z,99894.94
2022-12-20T22:19:47.508Z,99886.22
2022-12-20T22:24:50.782Z,99888.81
2022-12-20T22:29:54.018Z,99892.34
2022-12-20T22:34:58.757Z,99888.81
2022-12-20T22:40:02.208Z,99885.41
2022-12-20T22:45:07.594Z,99881.03
2022-12-20T22:50:12.829Z,99878.47
2022-12-20T22:55:16.261Z,99872.41
2022-12-20T23:00:19.890Z,99872.50
2022-12-20T23:05:24.560Z,99871.78
2022-12-20T23:10:45.317Z,99861.56
2022-12-20T23:15:49.812Z,99855.78
2022-12-20T23:21:12.220Z,99845.28
2022-12-20T23:26:17.348Z,99852.22
2022-12-20T23:31:20.745Z,99860.91
2022-12-20T23:36:25.391Z,99857.63
2022-12-20T23:41:29.083Z,99840.38
2022-12-20T23:46:32.457Z,99850.88
2022-12-20T23:51:37.269Z,99840.63
2022-12-20T23:56:40.693Z,99827.75
